Time;durP1;ratioP1;P1;durP2;ratioP2;P2;SDS_P1;SDS_P2;PMS_P1;PMS_P2;Temp;Humidity;BMP_temperature;BMP_pressure;BME280_temperature;BME280_humidity;BME280_pressure;Samples;Min_cycle;Max_cycle;Signal;HPM_P1;HPM_P2
2022/10/19 00:00:07;;;;;;;5.35;1.85;;;12.50;99.90;;;;;;4132644;28;20034;-66
2022/10/19 00:02:08;;;;;;;2.00;1.13;;;12.50;99.90;;;;;;4133666;28;20042;-65
2022/10/19 00:04:08;;;;;;;3.45;1.20;;;12.40;99.90;;;;;;4132036;28;20121;-65
2022/10/19 00:06:24;;;;;;;3.00;1.55;;;12.40;99.90;;;;;;4131636;28;20036;-65
2022/10/19 00:08:25;;;;;;;3.80;1.35;;;12.40;99.90;;;;;;4138502;28;20042;-65
2022/10/19 00:10:26;;;;;;;2.60;1.25;;;12.40;99.90;;;;;;4140052;28;20057;-65
2022/10/19 00:12:26;;;;;;;2.97;1.48;;;12.30;99.90;;;;;;4141067;28;20060;-65
2022/10/19 00:14:27;;;;;;;3.80;1.40;;;12.30;99.90;;;;;;4142444;28;20129;-65
2022/10/19 00:16:31;;;;;;;3.58;1.38;;;12.30;99.90;;;;;;4135907;28;20110;-66
2022/10/19 00:18:32;;;;;;;5.43;1.80;;;12.30;99.90;;;;;;4133087;28;20681;-65
2022/10/19 00:20:34;;;;;;;4.13;1.83;;;12.30;99.90;;;;;;4136691;28;20031;-65
2022/10/19 00:22:35;;;;;;;4.32;1.67;;;12.30;99.90;;;;;;4139389;28;20034;-65
2022/10/19 00:24:35;;;;;;;3.63;1.77;;;12.20;99.90;;;;;;4133787;28;20098;-65
2022/10/19 00:26:37;;;;;;;4.20;1.70;;;12.20;99.90;;;;;;4140035;28;20563;-66
2022/10/19 00:28:38;;;;;;;1.90;1.42;;;12.30;99.90;;;;;;4133959;28;20125;-65
2022/10/19 00:30:38;;;;;;;5.07;1.73;;;12.20;99.90;;;;;;4149119;28;20073;-65
2022/10/19 00:32:39;;;;;;;4.55;1.65;;;12.20;99.90;;;;;;4133032;28;20475;-65
2022/10/19 00:34:40;;;;;;;4.63;2.00;;;12.20;99.90;;;;;;4132614;28;20089;-65
2022/10/19 00:36:40;;;;;;;2.67;1.30;;;12.20;99.90;;;;;;4132045;28;20126;-65
2022/10/19 00:38:41;;;;;;;5.43;1.80;;;12.20;99.90;;;;;;4135334;28;20386;-66
2022/10/19 00:40:43;;;;;;;5.10;1.92;;;12.20;99.90;;;;;;4132491;28;21336;-65
2022/10/19 00:42:43;;;;;;;3.83;1.88;;;12.20;99.90;;;;;;4140358;28;20069;-65
2022/10/19 00:44:44;;;;;;;5.18;2.00;;;12.10;99.90;;;;;;4135388;28;20624;-65
2022/10/19 00:46:47;;;;;;;3.83;1.40;;;12.10;99.90;;;;;;4139104;28;20046;-65
2022/10/19 00:48:51;;;;;;;6.47;1.67;;;12.10;99.90;;;;;;4137714;28;20046;-65
2022/10/19 00:50:54;;;;;;;3.85;1.60;;;12.10;99.90;;;;;;4137427;28;20148;-65
2022/10/19 00:52:55;;;;;;;4.10;1.58;;;12.10;99.90;;;;;;4135754;28;20053;-65
2022/10/19 00:54:58;;;;;;;5.20;2.03;;;12.10;99.90;;;;;;4138173;28;20513;-66
2022/10/19 00:56:59;;;;;;;2.97;1.70;;;12.10;99.90;;;;;;4141117;28;20037;-66
2022/10/19 00:59:03;;;;;;;3.45;1.83;;;12.00;99.90;;;;;;4136878;28;20034;-65
2022/10/19 01:01:06;;;;;;;3.67;1.58;;;12.00;99.90;;;;;;4139595;28;20495;-63
2022/10/19 01:03:08;;;;;;;2.58;1.40;;;12.10;99.90;;;;;;4140509;28;20456;-63
2022/10/19 01:05:10;;;;;;;3.65;1.77;;;12.00;99.90;;;;;;4132941;28;20085;-63
2022/10/19 01:07:11;;;;;;;3.25;1.60;;;12.00;99.90;;;;;;4141842;28;20038;-63
2022/10/19 01:09:12;;;;;;;4.60;1.70;;;12.00;99.90;;;;;;4124388;28;20164;-64
2022/10/19 01:11:13;;;;;;;5.05;1.73;;;12.00;99.90;;;;;;4141257;28;20148;-63
2022/10/19 01:13:24;;;;;;;3.88;1.40;;;12.00;99.90;;;;;;4141511;28;20045;-63
2022/10/19 01:15:37;;;;;;;1.90;1.42;;;12.00;99.90;;;;;;4131206;28;20518;-64
2022/10/19 01:17:37;;;;;;;;;;;12.00;99.90;;;;;;4149534;28;20026;-63
2022/10/19 01:19:57;;;;;;;3.90;1.40;;;12.00;99.90;;;;;;4139267;28;20291;-63
2022/10/19 01:22:07;;;;;;;3.63;1.65;;;12.00;99.90;;;;;;4140398;28;20034;-63
2022/10/19 01:24:25;;;;;;;5.35;1.73;;;12.00;99.90;;;;;;4144018;28;20132;-63
2022/10/19 01:26:28;;;;;;;5.00;1.90;;;11.90;99.90;;;;;;4139131;28;20022;-64
2022/10/19 01:28:57;;;;;;;4.38;1.80;;;11.90;99.90;;;;;;4139151;28;20407;-66
2022/10/19 01:31:33;;;;;;;3.60;1.50;;;11.90;99.90;;;;;;4138870;28;20148;-63
2022/10/19 01:33:58;;;;;;;3.60;1.50;;;11.90;99.90;;;;;;4147217;28;20056;-65
2022/10/19 01:36:21;;;;;;;3.55;1.60;;;11.90;99.90;;;;;;4136960;28;20038;-68
2022/10/19 01:38:27;;;;;;;;;;;11.80;99.90;;;;;;4144589;28;20411;-63
2022/10/19 01:40:33;;;;;;;3.55;1.70;;;11.80;99.90;;;;;;4137727;28;20012;-63
2022/10/19 01:42:43;;;;;;;3.88;1.70;;;11.80;99.90;;;;;;4133632;28;20042;-64
2022/10/19 01:45:10;;;;;;;3.08;1.75;;;11.80;99.90;;;;;;4139810;28;20038;-64
2022/10/19 01:47:34;;;;;;;4.10;1.70;;;11.80;99.90;;;;;;4145796;28;20044;-63
2022/10/19 01:49:43;;;;;;;4.63;1.77;;;11.80;99.90;;;;;;4138896;28;20527;-63
2022/10/19 01:51:52;;;;;;;3.63;1.55;;;11.80;99.90;;;;;;4156775;28;20092;-63
2022/10/19 01:53:58;;;;;;;2.83;1.50;;;11.70;99.90;;;;;;4141320;28;20038;-64
2022/10/19 01:56:01;;;;;;;4.25;2.13;;;11.70;99.90;;;;;;4141410;28;20038;-63
2022/10/19 01:58:06;;;;;;;1.63;1.23;;;11.70;99.90;;;;;;4137666;28;20030;-63
2022/10/19 02:00:09;;;;;;;1.13;0.98;;;11.60;99.90;;;;;;4136143;28;20498;-65
2022/10/19 02:02:10;;;;;;;;;;;11.60;99.90;;;;;;4139624;28;20031;-63
2022/10/19 02:04:17;;;;;;;1.33;0.70;;;11.60;99.90;;;;;;4138629;28;20225;-65
2022/10/19 02:06:19;;;;;;;1.08;0.85;;;11.60;99.90;;;;;;4131992;28;20041;-63
2022/10/19 02:08:26;;;;;;;2.97;0.80;;;11.50;99.90;;;;;;4140254;28;20050;-63
2022/10/19 02:10:29;;;;;;;2.90;1.42;;;11.50;99.90;;;;;;4120819;28;20046;-64
2022/10/19 02:12:31;;;;;;;2.50;1.30;;;11.50;99.90;;;;;;4140153;28;20034;-63
2022/10/19 02:14:38;;;;;;;2.28;1.40;;;11.50;99.90;;;;;;4139254;28;20053;-63
2022/10/19 02:16:58;;;;;;;1.35;1.10;;;11.50;99.90;;;;;;4136055;28;20026;-63
2022/10/19 02:19:00;;;;;;;2.47;1.75;;;11.50;99.90;;;;;;4137210;28;20468;-63
2022/10/19 02:21:03;;;;;;;4.55;1.60;;;11.50;99.90;;;;;;4138088;28;20114;-63
2022/10/19 02:23:07;;;;;;;3.40;1.92;;;11.50;99.90;;;;;;4138549;28;20192;-64
2022/10/19 02:25:09;;;;;;;4.30;1.70;;;11.50;99.90;;;;;;4140489;28;20022;-63
2022/10/19 02:27:10;;;;;;;2.83;1.27;;;11.40;99.90;;;;;;4135088;28;20065;-63
2022/10/19 02:29:13;;;;;;;2.30;1.50;;;11.40;99.90;;;;;;4137723;28;20038;-62
2022/10/19 02:31:14;;;;;;;2.33;1.90;;;11.50;99.90;;;;;;4136428;28;20408;-63
2022/10/19 02:33:15;;;;;;;5.40;1.77;;;11.50;99.90;;;;;;4140026;28;20030;-63
2022/10/19 02:35:16;;;;;;;2.45;1.55;;;11.40;99.90;;;;;;4132975;28;20512;-63
2022/10/19 02:37:16;;;;;;;4.13;1.95;;;11.40;99.90;;;;;;4137006;28;20048;-62
2022/10/19 02:39:17;;;;;;;3.42;1.80;;;11.40;99.90;;;;;;4125788;28;20042;-63
2022/10/19 02:41:44;;;;;;;5.40;2.17;;;11.40;99.90;;;;;;4138795;28;20092;-63
2022/10/19 02:43:49;;;;;;;3.22;1.95;;;11.40;99.90;;;;;;4138272;28;20109;-63
2022/10/19 02:46:31;;;;;;;3.00;2.05;;;11.40;99.90;;;;;;4133499;28;20092;-65
2022/10/19 02:48:34;;;;;;;2.30;1.52;;;11.30;99.90;;;;;;4141727;28;20036;-63
2022/10/19 02:50:35;;;;;;;3.17;1.63;;;11.30;99.90;;;;;;4137965;28;20022;-62
2022/10/19 02:52:36;;;;;;;3.63;1.83;;;11.30;99.90;;;;;;4134803;28;20041;-66
2022/10/19 02:54:39;;;;;;;2.65;1.92;;;11.30;99.90;;;;;;4140886;28;20030;-63
2022/10/19 02:56:39;;;;;;;5.07;1.83;;;11.30;99.90;;;;;;4140622;28;20033;-63
2022/10/19 02:58:40;;;;;;;5.47;2.10;;;11.30;99.90;;;;;;4139528;28;20394;-63
2022/10/19 03:00:41;;;;;;;4.53;2.45;;;11.30;99.90;;;;;;4134574;28;20030;-63
2022/10/19 03:02:41;;;;;;;3.55;2.05;;;11.20;99.90;;;;;;4134664;28;20045;-63
2022/10/19 03:04:43;;;;;;;4.70;2.08;;;11.20;99.90;;;;;;4136918;28;20038;-63
2022/10/19 03:06:44;;;;;;;2.00;1.73;;;11.20;99.90;;;;;;4134069;28;20042;-63
2022/10/19 03:08:44;;;;;;;3.25;1.90;;;11.20;99.90;;;;;;4150253;28;22330;-63
2022/10/19 03:10:45;;;;;;;3.17;1.90;;;11.10;99.90;;;;;;4136193;28;20050;-63
2022/10/19 03:12:45;;;;;;;4.97;2.00;;;11.10;99.90;;;;;;4139472;28;20038;-62
2022/10/19 03:14:46;;;;;;;2.35;2.05;;;11.10;99.90;;;;;;4135030;28;20058;-63
2022/10/19 03:16:47;;;;;;;2.10;1.50;;;11.10;99.90;;;;;;4142763;28;20044;-62
2022/10/19 03:18:48;;;;;;;2.53;1.55;;;11.10;99.90;;;;;;4138484;28;20073;-62
2022/10/19 03:20:49;;;;;;;3.35;2.17;;;11.10;99.90;;;;;;4132372;28;20035;-63
2022/10/19 03:22:49;;;;;;;2.35;1.70;;;11.10;99.90;;;;;;4152541;28;20068;-63
2022/10/19 03:24:50;;;;;;;2.67;1.38;;;11.10;99.90;;;;;;4135240;28;20057;-63
2022/10/19 03:26:51;;;;;;;2.38;1.40;;;11.10;99.90;;;;;;4139055;28;20424;-64
2022/10/19 03:28:52;;;;;;;2.03;1.60;;;11.00;99.90;;;;;;4131803;28;20100;-63
2022/10/19 03:30:52;;;;;;;4.57;2.05;;;11.00;99.90;;;;;;4137742;28;20053;-63
2022/10/19 03:32:53;;;;;;;4.88;1.98;;;10.90;99.90;;;;;;4139782;28;20034;-64
2022/10/19 03:34:53;;;;;;;6.65;2.30;;;10.70;99.90;;;;;;4137732;28;20431;-63
2022/10/19 03:36:55;;;;;;;4.25;2.10;;;10.60;99.90;;;;;;4140983;28;20042;-63
2022/10/19 03:38:58;;;;;;;4.47;2.28;;;10.60;99.90;;;;;;4141848;28;20493;-62
2022/10/19 03:40:58;;;;;;;;;;;10.50;99.90;;;;;;4132308;28;20044;-62
2022/10/19 03:42:59;;;;;;;7.78;2.85;;;10.40;99.90;;;;;;4140679;28;19992;-63
2022/10/19 03:44:59;;;;;;;7.20;2.45;;;10.30;99.90;;;;;;4130273;28;20520;-63
2022/10/19 03:47:00;;;;;;;4.53;2.30;;;10.20;99.90;;;;;;4144250;28;20034;-64
2022/10/19 03:49:01;;;;;;;5.68;2.30;;;10.20;99.90;;;;;;4135784;28;20038;-63
2022/10/19 03:51:05;;;;;;;4.93;2.25;;;10.10;99.90;;;;;;4138472;28;20034;-64
2022/10/19 03:53:06;;;;;;;6.90;2.40;;;10.00;99.90;;;;;;4145167;28;20042;-62
2022/10/19 03:55:07;;;;;;;3.47;2.03;;;9.90;99.90;;;;;;4140067;28;20044;-64
2022/10/19 03:57:07;;;;;;;3.90;2.25;;;10.00;99.90;;;;;;4154307;28;20029;-63
2022/10/19 03:59:12;;;;;;;8.50;3.00;;;9.90;99.90;;;;;;4139881;28;20517;-64
2022/10/19 04:01:15;;;;;;;6.30;2.88;;;9.90;99.90;;;;;;4140492;28;20523;-63
2022/10/19 04:03:16;;;;;;;5.85;2.88;;;9.80;99.90;;;;;;4140093;28;20049;-64
2022/10/19 04:05:16;;;;;;;9.88;2.78;;;9.70;99.90;;;;;;4155012;28;20345;-64
2022/10/19 04:07:17;;;;;;;5.47;2.65;;;9.70;99.90;;;;;;4139567;28;20399;-64
2022/10/19 04:09:20;;;;;;;4.75;2.60;;;9.70;99.90;;;;;;4139351;28;20494;-63
2022/10/19 04:11:22;;;;;;;;;;;9.70;99.90;;;;;;4139015;28;20483;-63
2022/10/19 04:13:22;;;;;;;5.10;2.20;;;9.70;99.90;;;;;;4155224;28;19909;-65
2022/10/19 04:15:23;;;;;;;4.38;2.20;;;9.70;99.90;;;;;;4138357;28;20380;-63
2022/10/19 04:17:24;;;;;;;6.85;2.63;;;9.80;99.90;;;;;;4139474;28;20046;-63
2022/10/19 04:19:24;;;;;;;4.90;2.33;;;9.80;99.90;;;;;;4154352;28;20140;-63
2022/10/19 04:21:31;;;;;;;5.57;2.42;;;9.80;99.90;;;;;;4139105;28;20057;-62
2022/10/19 04:23:35;;;;;;;6.78;2.65;;;9.80;99.90;;;;;;4139525;28;20112;-63
2022/10/19 04:25:35;;;;;;;5.72;2.30;;;9.70;99.90;;;;;;4137285;28;20395;-62
2022/10/19 04:27:36;;;;;;;5.00;2.55;;;9.70;99.90;;;;;;4140584;28;20030;-63
2022/10/19 04:29:36;;;;;;;6.55;3.05;;;9.70;99.90;;;;;;4139331;28;20089;-63
2022/10/19 04:31:38;;;;;;;5.30;2.47;;;9.70;99.90;;;;;;4136128;28;20042;-63
2022/10/19 04:33:39;;;;;;;8.35;2.83;;;9.70;99.90;;;;;;4137848;28;20038;-64
2022/10/19 04:35:40;;;;;;;4.85;2.10;;;9.60;99.90;;;;;;4138201;28;20511;-63
2022/10/19 04:37:40;;;;;;;4.25;2.20;;;9.70;99.90;;;;;;4140697;28;20037;-65
2022/10/19 04:39:42;;;;;;;4.70;2.38;;;9.70;99.90;;;;;;4142817;28;20042;-63
2022/10/19 04:41:42;;;;;;;4.40;2.13;;;9.70;99.90;;;;;;4145565;28;20053;-64
2022/10/19 04:43:44;;;;;;;3.60;1.90;;;9.80;99.90;;;;;;4143790;28;20054;-62
2022/10/19 04:45:44;;;;;;;7.07;3.00;;;9.90;99.90;;;;;;4140395;28;20426;-64
2022/10/19 04:47:45;;;;;;;7.10;2.28;;;9.90;99.90;;;;;;4143659;28;20045;-63
2022/10/19 04:49:45;;;;;;;5.35;2.38;;;9.90;99.90;;;;;;4143697;28;20030;-63
2022/10/19 04:51:46;;;;;;;4.00;2.30;;;10.00;99.90;;;;;;4141016;28;20038;-62
2022/10/19 04:53:47;;;;;;;4.88;1.98;;;10.10;99.90;;;;;;4141941;28;20160;-63
2022/10/19 04:55:47;;;;;;;4.60;2.03;;;10.20;99.90;;;;;;4141435;28;20169;-64
2022/10/19 04:57:48;;;;;;;6.72;2.28;;;10.20;99.90;;;;;;4143209;28;20064;-63
2022/10/19 04:59:49;;;;;;;3.70;2.00;;;10.30;99.90;;;;;;4142869;28;20046;-63
2022/10/19 05:01:49;;;;;;;5.13;2.10;;;10.30;99.90;;;;;;4156178;28;20536;-64
2022/10/19 05:03:58;;;;;;;4.68;2.10;;;10.40;99.90;;;;;;4143223;28;20088;-63
2022/10/19 05:05:58;;;;;;;5.82;2.10;;;10.30;99.90;;;;;;4141628;28;20041;-67
2022/10/19 05:08:00;;;;;;;4.85;2.45;;;10.40;99.90;;;;;;4158168;28;20038;-63
2022/10/19 05:10:00;;;;;;;2.88;1.85;;;10.40;99.90;;;;;;4141012;28;20042;-63
2022/10/19 05:12:01;;;;;;;3.35;1.70;;;10.40;99.90;;;;;;4140258;28;20467;-63
2022/10/19 05:14:01;;;;;;;2.53;1.88;;;10.40;99.90;;;;;;4141463;28;20061;-68
2022/10/19 05:16:04;;;;;;;2.90;1.88;;;10.50;99.90;;;;;;4157207;28;20461;-63
2022/10/19 05:18:05;;;;;;;2.95;1.95;;;10.50;99.90;;;;;;4143510;28;20411;-62
2022/10/19 05:20:06;;;;;;;2.78;1.88;;;10.50;99.90;;;;;;4141448;28;20041;-64
2022/10/19 05:22:07;;;;;;;3.78;1.92;;;10.50;99.90;;;;;;4140178;28;20059;-64
2022/10/19 05:24:11;;;;;;;4.13;1.90;;;10.50;99.90;;;;;;4143342;28;20065;-62
2022/10/19 05:26:16;;;;;;;4.10;2.00;;;10.50;99.90;;;;;;4146882;28;20042;-63
2022/10/19 05:28:16;;;;;;;4.68;2.50;;;10.50;99.90;;;;;;4133916;28;20038;-63
2022/10/19 05:30:20;;;;;;;4.75;2.28;;;10.50;99.90;;;;;;4140253;28;20487;-65
2022/10/19 05:32:21;;;;;;;3.75;2.38;;;10.60;99.90;;;;;;4142153;28;20350;-62
2022/10/19 05:34:21;;;;;;;3.67;2.00;;;10.60;99.90;;;;;;4143253;28;20044;-64
2022/10/19 05:36:33;;;;;;;4.50;2.53;;;10.60;99.90;;;;;;4145226;28;20105;-63
2022/10/19 05:38:33;;;;;;;4.00;2.40;;;10.50;99.90;;;;;;4141512;28;20029;-63
2022/10/19 05:40:34;;;;;;;4.72;2.50;;;10.50;99.90;;;;;;4148475;28;20479;-63
2022/10/19 05:42:34;;;;;;;5.00;2.47;;;10.50;99.90;;;;;;4147662;28;20030;-63
2022/10/19 05:44:36;;;;;;;4.40;2.47;;;10.50;99.90;;;;;;4141333;28;20033;-62
2022/10/19 05:46:36;;;;;;;3.80;2.58;;;10.60;99.90;;;;;;4150955;28;20077;-62
2022/10/19 05:48:38;;;;;;;4.68;2.83;;;10.50;99.90;;;;;;4157334;28;20545;-62
2022/10/19 05:50:39;;;;;;;4.30;2.90;;;10.60;99.90;;;;;;4153351;28;20029;-62
2022/10/19 05:52:39;;;;;;;4.57;2.67;;;10.60;99.90;;;;;;4154979;28;20538;-62
2022/10/19 05:54:40;;;;;;;3.25;2.53;;;10.50;99.90;;;;;;4143511;28;20041;-63
2022/10/19 05:56:41;;;;;;;5.05;3.15;;;10.50;99.90;;;;;;4149881;28;20026;-62
2022/10/19 05:58:42;;;;;;;4.57;2.97;;;10.50;99.90;;;;;;4145503;28;20030;-63
2022/10/19 06:00:42;;;;;;;3.60;2.50;;;10.50;99.90;;;;;;4152272;28;20026;-63
2022/10/19 06:02:43;;;;;;;4.43;2.78;;;10.50;99.90;;;;;;4150178;28;20114;-62
2022/10/19 06:04:43;;;;;;;3.67;2.17;;;10.50;99.90;;;;;;4151130;28;20033;-63
2022/10/19 06:06:44;;;;;;;4.45;2.70;;;10.50;99.90;;;;;;4145384;28;20175;-62
2022/10/19 06:08:45;;;;;;;4.50;3.00;;;10.50;99.90;;;;;;4127681;28;20491;-65
2022/10/19 06:10:47;;;;;;;4.25;2.92;;;10.50;99.90;;;;;;4110938;28;20031;-64
2022/10/19 06:12:47;;;;;;;6.15;3.75;;;10.40;99.90;;;;;;4124075;28;20031;-64
2022/10/19 06:14:49;;;;;;;4.00;2.88;;;10.40;99.90;;;;;;4138048;28;20045;-62
2022/10/19 06:16:50;;;;;;;4.70;2.83;;;10.50;99.90;;;;;;4136367;28;20030;-62
2022/10/19 06:18:52;;;;;;;5.65;2.92;;;10.40;99.90;;;;;;4127576;28;20061;-64
2022/10/19 06:20:53;;;;;;;5.55;2.40;;;10.40;99.90;;;;;;4133693;28;20462;-64
2022/10/19 06:22:53;;;;;;;3.28;2.05;;;10.40;99.90;;;;;;4128209;28;20050;-62
2022/10/19 06:24:55;;;;;;;5.32;2.50;;;10.40;99.90;;;;;;4126735;28;20038;-62
2022/10/19 06:26:55;;;;;;;3.63;2.30;;;10.40;99.90;;;;;;4137799;28;20026;-64
2022/10/19 06:28:59;;;;;;;2.75;2.05;;;10.30;99.90;;;;;;4125998;28;20165;-63
2022/10/19 06:30:59;;;;;;;4.22;2.08;;;10.40;99.90;;;;;;4126873;28;20026;-62
2022/10/19 06:33:00;;;;;;;5.25;2.03;;;10.40;99.90;;;;;;4123767;28;20049;-62
2022/10/19 06:35:00;;;;;;;3.33;1.95;;;10.30;99.90;;;;;;4120722;28;20038;-61
2022/10/19 06:37:01;;;;;;;3.83;1.95;;;10.40;99.90;;;;;;4121239;28;20378;-64
2022/10/19 06:39:02;;;;;;;3.28;2.20;;;10.40;99.90;;;;;;4126258;28;20521;-62
2022/10/19 06:41:03;;;;;;;3.78;2.42;;;10.40;99.90;;;;;;4118783;28;20042;-67
2022/10/19 06:43:03;;;;;;;2.50;1.88;;;10.40;99.90;;;;;;4122590;28;20089;-62
2022/10/19 06:45:08;;;;;;;3.42;2.22;;;10.40;99.90;;;;;;4119975;28;20430;-62
2022/10/19 06:47:09;;;;;;;3.45;2.10;;;10.30;99.90;;;;;;4119264;28;20039;-62
2022/10/19 06:49:12;;;;;;;1.60;1.25;;;10.30;99.90;;;;;;4126045;28;20042;-61
2022/10/19 06:51:12;;;;;;;4.60;2.67;;;10.20;99.90;;;;;;4122065;28;20031;-61
2022/10/19 06:53:13;;;;;;;10.45;4.25;;;10.10;99.90;;;;;;4122556;28;20495;-61
2022/10/19 06:55:14;;;;;;;7.88;3.88;;;9.90;99.90;;;;;;4118604;28;20579;-64
2022/10/19 06:57:14;;;;;;;7.93;3.70;;;9.80;99.90;;;;;;4123655;28;20089;-62
2022/10/19 06:59:16;;;;;;;11.38;4.40;;;9.60;99.90;;;;;;4138191;28;20027;-61
2022/10/19 07:01:17;;;;;;;7.70;4.55;;;9.60;99.90;;;;;;4123956;28;20092;-62
2022/10/19 07:03:17;;;;;;;8.05;4.82;;;9.50;99.90;;;;;;4140835;28;20510;-61
2022/10/19 07:05:18;;;;;;;12.88;4.50;;;9.50;99.90;;;;;;4125296;28;20038;-62
2022/10/19 07:07:18;;;;;;;7.63;4.93;;;9.40;99.90;;;;;;4124339;28;20102;-61
2022/10/19 07:09:21;;;;;;;10.20;4.53;;;9.50;99.90;;;;;;4124565;28;20104;-61
2022/10/19 07:11:22;;;;;;;10.57;4.68;;;9.60;99.90;;;;;;4125649;28;20053;-62
2022/10/19 07:13:23;;;;;;;11.70;4.68;;;9.60;99.90;;;;;;4138030;28;20034;-62
2022/10/19 07:15:23;;;;;;;8.93;4.57;;;9.60;99.90;;;;;;4121287;28;20050;-61
2022/10/19 07:17:24;;;;;;;9.70;4.25;;;9.70;99.90;;;;;;4120432;28;20038;-61
2022/10/19 07:19:25;;;;;;;9.32;4.28;;;9.70;99.90;;;;;;4119142;28;20121;-62
2022/10/19 07:21:26;;;;;;;7.95;3.90;;;9.80;99.90;;;;;;4121179;28;20106;-61
2022/10/19 07:23:28;;;;;;;8.10;3.63;;;9.90;99.90;;;;;;4121713;28;20034;-61
2022/10/19 07:25:29;;;;;;;8.43;4.28;;;9.90;99.90;;;;;;4102159;28;20531;-62
2022/10/19 07:27:30;;;;;;;8.35;3.55;;;10.00;99.90;;;;;;4122939;28;20117;-61
2022/10/19 07:29:31;;;;;;;16.35;4.10;;;10.00;99.90;;;;;;4125187;28;20026;-62
2022/10/19 07:31:31;;;;;;;5.90;3.65;;;10.00;99.90;;;;;;4122249;28;20400;-61
2022/10/19 07:33:32;;;;;;;8.57;3.25;;;10.10;99.90;;;;;;4122663;28;20027;-64
2022/10/19 07:35:33;;;;;;;9.70;3.83;;;10.20;99.90;;;;;;4123056;28;20121;-62
2022/10/19 07:37:33;;;;;;;9.35;5.22;;;10.20;99.90;;;;;;4121515;28;20093;-62
2022/10/19 07:39:35;;;;;;;17.85;6.75;;;10.20;99.90;;;;;;4122784;28;20481;-64
2022/10/19 07:41:36;;;;;;;13.05;6.10;;;10.20;99.90;;;;;;4120765;28;20034;-61
2022/10/19 07:43:36;;;;;;;16.55;6.90;;;10.30;99.90;;;;;;4116238;28;20041;-62
2022/10/19 07:45:37;;;;;;;16.25;6.22;;;10.40;99.90;;;;;;4139649;28;20022;-62
2022/10/19 07:47:37;;;;;;;15.70;6.63;;;10.40;99.90;;;;;;4110253;28;20054;-62
2022/10/19 07:49:38;;;;;;;15.73;6.03;;;10.40;99.90;;;;;;4125877;28;20396;-62
2022/10/19 07:51:39;;;;;;;16.48;6.43;;;10.60;99.90;;;;;;4124157;28;20076;-61
2022/10/19 07:53:40;;;;;;;13.63;5.47;;;10.70;99.90;;;;;;4121235;28;20496;-62
2022/10/19 07:55:41;;;;;;;13.50;5.57;;;10.80;99.90;;;;;;4123451;28;20386;-61
2022/10/19 07:57:41;;;;;;;9.57;4.88;;;11.00;99.90;;;;;;4141210;28;20042;-63
2022/10/19 07:59:42;;;;;;;10.98;5.18;;;11.10;99.90;;;;;;4122011;28;20042;-61
2022/10/19 08:01:43;;;;;;;11.73;5.53;;;11.50;99.90;;;;;;4140030;28;20026;-62
2022/10/19 08:03:45;;;;;;;10.88;4.82;;;11.80;99.90;;;;;;4126175;28;20030;-63
2022/10/19 08:05:46;;;;;;;10.38;5.28;;;12.20;99.90;;;;;;4126448;28;20076;-62
2022/10/19 08:07:46;;;;;;;12.85;5.55;;;12.60;99.90;;;;;;4137520;28;20035;-62
2022/10/19 08:09:47;;;;;;;10.80;5.47;;;12.80;99.90;;;;;;4123746;28;20463;-64
2022/10/19 08:11:47;;;;;;;16.55;6.60;;;13.00;99.90;;;;;;4122302;28;20019;-62
2022/10/19 08:13:48;;;;;;;9.82;4.40;;;13.20;99.90;;;;;;4120589;28;20034;-63
2022/10/19 08:15:49;;;;;;;10.60;5.50;;;13.50;99.90;;;;;;4124222;28;20038;-62
2022/10/19 08:17:50;;;;;;;12.10;5.43;;;13.80;99.90;;;;;;4126625;28;20056;-63
2022/10/19 08:19:50;;;;;;;10.48;5.13;;;14.10;99.90;;;;;;4139483;28;20054;-62
2022/10/19 08:21:51;;;;;;;10.88;6.13;;;14.20;99.90;;;;;;4121302;28;20042;-64
2022/10/19 08:23:52;;;;;;;12.00;5.50;;;14.10;99.90;;;;;;4125955;28;20121;-62
2022/10/19 08:25:58;;;;;;;12.45;6.05;;;14.30;99.90;;;;;;4122768;28;20038;-62
2022/10/19 08:27:58;;;;;;;14.00;6.18;;;14.50;99.90;;;;;;4137294;28;20034;-63
2022/10/19 08:29:59;;;;;;;12.52;5.63;;;14.50;99.90;;;;;;4124320;28;20057;-62
2022/10/19 08:31:59;;;;;;;14.07;5.90;;;14.50;99.90;;;;;;4123689;28;20054;-63
2022/10/19 08:34:00;;;;;;;17.35;6.10;;;14.40;99.90;;;;;;4124475;28;20031;-63
2022/10/19 08:36:04;;;;;;;11.35;5.28;;;14.50;99.90;;;;;;4124041;28;20530;-62
2022/10/19 08:38:05;;;;;;;12.48;5.85;;;14.50;99.90;;;;;;4122204;28;20097;-62
2022/10/19 08:40:16;;;;;;;12.95;5.88;;;14.20;99.90;;;;;;4119477;28;20031;-63
2022/10/19 08:42:22;;;;;;;13.02;5.80;;;14.10;99.90;;;;;;4139495;28;20042;-63
2022/10/19 08:44:22;;;;;;;15.15;6.20;;;14.00;99.90;;;;;;4125182;28;20377;-63
2022/10/19 08:46:36;;;;;;;13.82;5.25;;;13.70;99.90;;;;;;4122130;28;20065;-63
2022/10/19 08:48:41;;;;;;;13.35;5.57;;;13.80;99.90;;;;;;4138765;28;20132;-63
2022/10/19 08:50:45;;;;;;;10.45;5.30;;;13.80;99.90;;;;;;4120435;28;20030;-62
2022/10/19 08:52:52;;;;;;;15.05;5.63;;;13.60;99.90;;;;;;4125799;28;20047;-62
2022/10/19 08:54:56;;;;;;;13.13;5.55;;;13.70;99.90;;;;;;4135739;28;20182;-62
2022/10/19 08:57:14;;;;;;;10.88;5.72;;;13.60;99.90;;;;;;4125215;28;20031;-62
2022/10/19 08:59:46;;;;;;;12.43;5.47;;;13.50;99.90;;;;;;4122571;28;20030;-63
2022/10/19 09:01:58;;;;;;;11.80;5.30;;;13.60;99.90;;;;;;4121749;28;20395;-62
2022/10/19 09:04:25;;;;;;;15.80;6.30;;;13.60;99.90;;;;;;4126112;28;20034;-63
2022/10/19 09:07:02;;;;;;;12.80;5.22;;;13.50;99.90;;;;;;4122599;28;20022;-62
2022/10/19 09:09:05;;;;;;;12.88;5.32;;;13.70;99.90;;;;;;4121023;28;20395;-67
2022/10/19 09:11:08;;;;;;;13.10;5.35;;;13.70;99.90;;;;;;4124952;28;20061;-63
2022/10/19 09:13:32;;;;;;;12.25;5.22;;;13.70;99.90;;;;;;4126357;28;20035;-62
2022/10/19 09:15:42;;;;;;;13.10;5.55;;;13.60;99.90;;;;;;4131524;28;20120;-61
2022/10/19 09:17:43;;;;;;;11.32;4.55;;;13.60;99.90;;;;;;4122358;28;20614;-64
2022/10/19 09:19:44;;;;;;;13.48;5.43;;;13.70;99.90;;;;;;4122294;28;20039;-62
2022/10/19 09:21:50;;;;;;;9.10;4.55;;;13.60;99.90;;;;;;4121005;28;20045;-62
2022/10/19 09:24:05;;;;;;;17.20;5.45;;;13.70;99.90;;;;;;4140304;28;20096;-62
2022/10/19 09:26:17;;;;;;;11.25;4.53;;;13.70;99.90;;;;;;4139889;28;20529;-65
2022/10/19 09:28:44;;;;;;;12.60;4.20;;;13.70;99.90;;;;;;4125776;28;20084;-62
2022/10/19 09:30:46;;;;;;;13.65;4.97;;;13.60;99.90;;;;;;4140130;28;20908;-63
2022/10/19 09:32:57;;;;;;;9.27;4.03;;;13.50;99.90;;;;;;4126484;28;20057;-62
2022/10/19 09:35:03;;;;;;;11.23;4.15;;;13.80;99.90;;;;;;4142377;28;20116;-63
2022/10/19 09:37:04;;;;;;;8.80;4.18;;;13.70;99.90;;;;;;4127391;28;20085;-64
2022/10/19 09:39:05;;;;;;;11.13;4.00;;;13.80;99.90;;;;;;4127749;28;20047;-63
2022/10/19 09:41:18;;;;;;;7.88;3.67;;;13.70;99.90;;;;;;4127188;28;20404;-64
2022/10/19 09:43:20;;;;;;;11.02;3.63;;;13.70;99.90;;;;;;4123442;28;20030;-62
2022/10/19 09:45:43;;;;;;;8.25;4.00;;;13.70;99.90;;;;;;4124615;28;20038;-62
2022/10/19 09:47:47;;;;;;;19.80;4.43;;;13.80;99.90;;;;;;4126593;28;20059;-63
2022/10/19 09:49:48;;;;;;;7.80;3.67;;;13.80;99.90;;;;;;4124700;28;20022;-61
2022/10/19 09:51:52;;;;;;;8.57;3.38;;;13.70;99.90;;;;;;4123521;28;20038;-62
2022/10/19 09:53:54;;;;;;;7.65;3.05;;;13.80;99.90;;;;;;4138763;28;20025;-63
2022/10/19 09:56:06;;;;;;;12.90;3.92;;;13.90;99.90;;;;;;4125329;28;20047;-62
2022/10/19 09:58:13;;;;;;;13.50;3.35;;;13.90;99.90;;;;;;4126061;28;20426;-62
2022/10/19 10:00:29;;;;;;;8.40;3.00;;;13.80;99.90;;;;;;4124420;28;20121;-62
2022/10/19 10:02:31;;;;;;;8.85;3.40;;;14.00;99.90;;;;;;4124042;28;20117;-62
2022/10/19 10:04:35;;;;;;;9.63;4.18;;;14.10;99.90;;;;;;4141647;28;20113;-62
2022/10/19 10:06:38;;;;;;;12.00;4.55;;;14.10;99.90;;;;;;4108864;28;20098;-65
2022/10/19 10:08:45;;;;;;;13.05;4.10;;;14.10;99.90;;;;;;4125762;28;20034;-62
2022/10/19 10:10:55;;;;;;;14.00;4.25;;;14.00;99.90;;;;;;4124670;28;20038;-61
2022/10/19 10:12:58;;;;;;;10.57;3.38;;;13.90;99.90;;;;;;4123454;28;20138;-62
2022/10/19 10:14:59;;;;;;;7.28;3.38;;;14.00;99.90;;;;;;4128270;28;20047;-64
2022/10/19 10:17:06;;;;;;;12.13;4.28;;;14.10;99.90;;;;;;4142667;28;20037;-61
2022/10/19 10:19:11;;;;;;;9.10;3.92;;;14.00;99.90;;;;;;4124925;28;20142;-63
2022/10/19 10:21:32;;;;;;;10.82;4.18;;;14.20;99.90;;;;;;4125406;28;20065;-62
2022/10/19 10:23:35;;;;;;;12.77;3.53;;;14.30;99.90;;;;;;4138257;28;20042;-62
2022/10/19 10:25:36;;;;;;;9.40;3.70;;;14.20;99.90;;;;;;4141363;28;20026;-62
2022/10/19 10:27:38;;;;;;;13.43;3.60;;;14.30;99.90;;;;;;4124082;28;20458;-62
2022/10/19 10:29:52;;;;;;;13.90;3.90;;;14.30;99.90;;;;;;4124755;28;20503;-61
2022/10/19 10:32:03;;;;;;;7.93;3.38;;;14.30;99.90;;;;;;4122083;28;20487;-62
2022/10/19 10:34:04;;;;;;;8.57;3.30;;;14.30;99.90;;;;;;4124417;28;20508;-63
2022/10/19 10:36:10;;;;;;;12.23;3.63;;;14.20;99.90;;;;;;4123666;28;20047;-62
2022/10/19 10:38:20;;;;;;;10.30;4.00;;;14.30;99.90;;;;;;4124631;28;20038;-61
2022/10/19 10:40:30;;;;;;;7.75;2.97;;;14.30;99.90;;;;;;4122729;28;20096;-62
2022/10/19 10:42:40;;;;;;;10.07;3.00;;;14.40;99.90;;;;;;4126358;28;20109;-62
2022/10/19 10:44:50;;;;;;;10.95;2.75;;;14.40;99.90;;;;;;4121041;28;20037;-62